Wednesday, November 14, 2018, 1:45 AM EST
Back to Local

KFZY, Fulton Oswego County Airport

Location: Fulton, NY, United States Lat: 43.35
Local Time: 1:45 AM EST ( 6:45 GMT) Lon: -76.383
Time Zone: US/Eastern Elev: 475 ft

Show me the last for .
Show Decoded

2018-11-14 00:54 METAR KFZY 140554Z AUTO 30014G23KT 10SM BKN040 OVC048 00/M07 A3017 RMK AO2 PK
                 WND 29027/0532 UPB07E17 SLP221 P0000 60000 T00001072 10011 21011 53005 =
2018-11-13 23:54 METAR KFZY 140454Z AUTO 24008KT 9SM FEW032 OVC039 M01/M03 A3016 RMK AO2 SNE52
                 SLP218 P0000 T10111033 400561011 =
2018-11-13 23:41 METAR KFZY 140441Z AUTO 24005KT 9SM -SN FEW007 SCT016 OVC034 M01/M03 A3016 RMK
                 AO2 P0000 T10111033 =
2018-11-13 23:28 METAR KFZY 140428Z AUTO 25004KT 3SM -SN BR BKN007 BKN033 M01/M03 A3015 RMK AO2
                 P0000 T10111033 =
2018-11-13 23:22 METAR KFZY 140422Z AUTO 29004KT 1 1/4SM -SN BR OVC007 M01/M03 A3015 RMK AO2
                 P0000 T10111033 =
2018-11-13 23:19 METAR KFZY 140419Z AUTO 29006KT 3/4SM -SN BR VV007 M01/M03 A3015 RMK AO2 P0000
                 T10111033 =
2018-11-13 22:54 METAR KFZY 140354Z AUTO 25006KT 1/4SM +SN FZFG VV005 M01/M03 A3015 RMK AO2
                 SLP216 P0000 T10111033 =
2018-11-13 22:37 METAR KFZY 140337Z AUTO 24008KT 1/4SM +SN FZFG VV007 M01/M03 A3016 RMK AO2 P0000
                 T10111033 =
2018-11-13 22:18 METAR KFZY 140318Z AUTO 28011KT 3/4SM -SN BKN014 OVC032 M01/M04 A3015 RMK AO2
                 P0000 T10111044 =
2018-11-13 22:13 METAR KFZY 140313Z AUTO 29013KT 1 3/4SM -SN BKN019 OVC034 M01/M06 A3016 RMK AO2
                 P0000 T10061056 =
2018-11-13 21:54 METAR KFZY 140254Z AUTO 29003KT 7SM -SN OVC036 00/M07 A3015 RMK AO2 SNE17B52
                 SLP216 P0000 60000 T00001067 51013 =
2018-11-13 20:54 METAR KFZY 140154Z AUTO 31004KT 9SM -SN BKN040 BKN050 OVC065 00/M07 A3014 RMK
                 AO2 SNB27 SLP211 P0000 T00001067 =
2018-11-13 19:54 METAR KFZY 140054Z AUTO 31008KT 10SM SCT048 BKN055 OVC075 01/M07 A3013 RMK AO2
                 UPB2355E2359SNE2355 SLP209 P0000 T00061067 =
2018-11-13 19:05 METAR KFZY 140005Z AUTO 31009KT 10SM FEW027 BKN034 OVC046 01/M06 A3012 RMK AO2
                 UPB2355E2359SNE2355 P0000 T00061056 =
2018-11-13 18:54 METAR KFZY 132354Z AUTO 31010KT 9SM -SN BKN027 OVC035 01/M05 A3011 RMK AO2 SNB37
                 SLP202 P0000 60004 T00111050 10033 20011 53018 =
2018-11-13 18:27 METAR KFZY 132327Z AUTO 28007KT 10SM BKN028 BKN034 OVC075 01/M04 A3009 RMK AO2
                 T00111039 =
2018-11-13 17:54 METAR KFZY 132254Z AUTO 31007KT 10SM FEW021 BKN046 OVC075 01/M03 A3008 RMK AO2
                 SLP191 T00111033 =
2018-11-13 17:52 METAR KFZY 132252Z AUTO 31009G17KT 10SM FEW018 BKN046 OVC075 01/M03 A3008 RMK
                 AO2 =
2018-11-13 16:54 METAR KFZY 132154Z AUTO 32009KT 10SM BKN015 OVC027 02/M02 A3006 RMK AO2 SLP183
                 T00221017 =
2018-11-13 16:23 METAR KFZY 132123Z AUTO 32011KT 10SM FEW016 BKN020 OVC060 02/M02 A3005 RMK AO2
                 T00221017 =
2018-11-13 15:54 METAR KFZY 132054Z AUTO 33012KT 10SM FEW019 SCT039 OVC050 03/M01 A3004 RMK AO2
                 RAB09E33 SLP176 P0000 60004 T00281006 53017 =
2018-11-13 15:39 METAR KFZY 132039Z AUTO 31013G21KT 10SM SCT016 BKN039 OVC047 03/M01 A3003 RMK
                 AO2 RAB09E33 P0000 T00281006 =
2018-11-13 14:54 METAR KFZY 131954Z AUTO 30011KT 9SM BKN015 BKN023 OVC028 03/01 A3001 RMK AO2
                 RAE21 SLP165 P0001 T00330006 =
2018-11-13 14:42 METAR KFZY 131942Z AUTO 31010G18KT 10SM BKN014 OVC021 03/01 A3000 RMK AO2 RAE21
                 P0001 T00330006 =
2018-11-13 14:17 METAR KFZY 131917Z AUTO 28007KT 8SM -RA SCT006 BKN018 OVC024 03/01 A2999 RMK AO2
                 P0001 T00330011 =
2018-11-13 14:05 METAR KFZY 131905Z AUTO 29008KT 4SM -RA BR SCT006 BKN010 OVC016 03/01 A2999 RMK
                 AO2 CIG 009V012 P0001 T00280006 =
2018-11-13 13:54 METAR KFZY 131854Z AUTO 28010KT 2 1/2SM RA BR BKN006 BKN010 OVC021 03/01 A2999
                 RMK AO2 RAB12 SLP160 P0003 T00280006 =
2018-11-13 13:49 METAR KFZY 131849Z AUTO 28008KT 3SM RA BR BKN006 BKN010 OVC021 03/01 A2999 RMK
                 AO2 RAB12 P0002 =
2018-11-13 13:42 METAR KFZY 131842Z AUTO 25006KT 5SM -RA BR SCT006 BKN015 OVC021 03/01 A2998 RMK
                 AO2 RAB12 P0002 T00280006 =
2018-11-13 12:54 METAR KFZY 131754Z AUTO 25006KT 6SM BR BKN007 BKN013 OVC025 03/01 A2999 RMK AO2
                 RAE07 CIG 004V009 SLP158 P0000 60007 T00330011 10039 20006 58016 =
2018-11-13 12:11 METAR KFZY 131711Z AUTO 27006KT 5SM BR OVC007 03/01 A2999 RMK AO2 RAE07 CIG
                 004V010 P0000 T00330011 =
2018-11-13 12:03 METAR KFZY 131703Z AUTO 27006KT 5SM -RA BR BKN005 OVC009 03/01 A3000 RMK AO2 CIG
                 004V009 P0000 T00330011 =
2018-11-13 11:54 METAR KFZY 131654Z AUTO 27007KT 4SM -RA BR BKN006 OVC009 03/01 A3000 RMK AO2
                 RAB29 SLP162 P0000 T00280006 =
2018-11-13 11:47 METAR KFZY 131647Z AUTO 27006KT 3SM -RA BR OVC006 03/01 A3001 RMK AO2 RAB29 CIG
                 004V008 P0000 T00280006 =
2018-11-13 11:44 METAR KFZY 131644Z AUTO 26005KT 2 1/2SM -RA BR OVC004 03/01 A3001 RMK AO2 RAB29
                 CIG 004V010 P0000 T00280006 =
2018-11-13 10:54 METAR KFZY 131554Z AUTO 24006KT 3SM BR OVC003 02/00 A3003 RMK AO2 SLP173
                 T00220000 =
2018-11-13 10:10 METAR KFZY 131510Z AUTO 21003KT 3SM BR OVC003 01/M01 A3003 RMK AO2 T00111006 =
2018-11-13 09:54 METAR KFZY 131454Z AUTO 21004KT 2 1/2SM BR OVC003 01/M01 A3004 RMK AO2 SLP175
                 P0003 60007 T00111006 56013 =
2018-11-13 09:43 METAR KFZY 131443Z AUTO 17003KT 2 1/2SM BR OVC003 01/M01 A3003 RMK AO2 P0003
                 T00111006 =
2018-11-13 09:16 METAR KFZY 131416Z AUTO 21003KT 3SM BR OVC003 01/M01 A3005 RMK AO2 P0003
                 T00111011 =
2018-11-13 09:08 METAR KFZY 131408Z AUTO 21004KT 2 1/2SM BR OVC003 01/M01 A3005 RMK AO2 P0002
                 T00111011 =
2018-11-13 08:54 METAR KFZY 131354Z AUTO 19003KT 3SM BR OVC003 01/M01 A3005 RMK AO2
                 UPE1256SNB1256E25 SLP181 P0003 T00111011 =
2018-11-13 08:49 METAR KFZY 131349Z AUTO 18003KT 3SM BR OVC003 01/M01 A3005 RMK AO2
                 UPE1256SNB1256E25 P0003 =
2018-11-13 08:29 METAR KFZY 131329Z AUTO 00000KT 2SM BR OVC003 01/M01 A3006 RMK AO2
                 UPE1256SNB1256E25 P0002 T00061006 =
2018-11-13 07:54 METAR KFZY 131254Z AUTO 00000KT 1 3/4SM UP BR OVC003 01/M01 A3007 RMK AO2
                 UPB51SNE44 SLP188 P0001 T00061006 =
2018-11-13 07:43 METAR KFZY 131243Z AUTO 00000KT 1 1/4SM -SN BR OVC003 01/M01 A3008 RMK AO2 P0001
                 T00061006 =
2018-11-13 07:35 METAR KFZY 131235Z AUTO 00000KT 1SM -SN BR BKN004 OVC011 01/M01 A3008 RMK AO2
                 P0001 T00061006 =
2018-11-13 07:22 METAR KFZY 131222Z AUTO 00000KT 3/4SM -SN BR OVC004 01/M01 A3008 RMK AO2 P0000
                 T00061006 =
2018-11-13 07:08 METAR KFZY 131208Z AUTO 00000KT 1SM -SN BR OVC004 01/M01 A3007 RMK AO2 P0000
                 T00061011 =
2018-11-13 06:54 METAR KFZY 131154Z AUTO 00000KT 3/4SM -SN BR VV004 01/M01 A3008 RMK AO2 SLP191
                 P0001 60017 70017 I6000 T00061011 10056 20006 56019 =
2018-11-13 06:52 METAR KFZY 131152Z AUTO 00000KT 3/4SM -SN BR VV004 01/M01 A3009 RMK AO2 P0001 =
2018-11-13 06:45 METAR KFZY 131145Z AUTO 00000KT 1SM -SN BR VV005 01/M01 A3009 RMK AO2 P0000
                 T00061011 =
2018-11-13 06:40 METAR KFZY 131140Z AUTO 00000KT 3/4SM -SN BR VV004 01/M01 A3009 RMK AO2 P0000
                 T00061011 =
2018-11-13 05:54 METAR KFZY 131054Z AUTO 00000KT 3/4SM -SN BR VV008 01/M01 A3010 RMK AO2
                 RAE14SNB14 SLP198 P0005 T00061011 =
2018-11-13 05:38 METAR KFZY 131038Z AUTO 00000KT 1SM -SN BR OVC006 01/M01 A3011 RMK AO2
                 RAE14SNB14 P0004 T00061011 =
2018-11-13 05:24 METAR KFZY 131024Z AUTO 00000KT 1 3/4SM -SN BR OVC006 01/M01 A3011 RMK AO2
                 RAE14SNB14 P0004 T00111006 =
2018-11-13 04:54 METAR KFZY 130954Z AUTO 00000KT 4SM -RA BR OVC006 02/00 A3011 RMK AO2 SLP201
                 P0006 I1000 T00220000 =
2018-11-13 04:29 METAR KFZY 130929Z AUTO 17003KT 3SM -RA BR OVC008 03/01 A3012 RMK AO2 P0004
                 T00280006 =
2018-11-13 03:54 METAR KFZY 130854Z AUTO 19007KT 4SM RA OVC011 03/01 A3014 RMK AO2 SLP209 P0005
                 60005 T00330006 58014 =
2018-11-13 03:43 METAR KFZY 130843Z AUTO 20004KT 4SM -RA BKN013 OVC025 03/01 A3014 RMK AO2 P0004
                 T00330006 =
2018-11-13 03:16 METAR KFZY 130816Z AUTO 21005KT 6SM -RA FEW020 OVC028 04/01 A3015 RMK AO2 P0002
                 T00390006 =
2018-11-13 02:54 METAR KFZY 130754Z AUTO 20006KT 8SM -RA OVC033 04/00 A3015 RMK AO2 RAB22 SLP214
                 P0000 T00440000 =
2018-11-13 01:54 METAR KFZY 130654Z AUTO 22004KT 10SM OVC065 05/M01 A3018 RMK AO2 SLP222
                 T00501011 =

Support USWX by starting your Amazon purchase here.